Terminal Aerodrome Forecast
Issued by NWS

Home | Current Version | Previous Version | Text Only | Print | Product List | Glossary On
Versions: 1 2 3 4 5 6 7 8 9 10 11 12 13 14 15 16
000
FTUS42 TJSJ 051700
TAFJSJ
TAF
TJSJ 051730Z 0518/0618 07018KT P6SM FEW040 SCT060
     FM052330 09012KT P6SM FEW025 SCT050
     FM061300 07017KT P6SM FEW025=

USA.gov is the U.S. government's official web portal to all federal, state and local government web resources and services.